sensor_id;sensor_type;location;lat;lon;timestamp;P1;durP1;ratioP1;P2;durP2;ratioP2
1414;SDS011;702;49.466;11.086;2024-01-11T00:00:49;40.37;;;19.93;;
1414;SDS011;702;49.466;11.086;2024-01-11T00:03:16;36.27;;;19.47;;
1414;SDS011;702;49.466;11.086;2024-01-11T00:05:44;32.57;;;19.10;;
1414;SDS011;702;49.466;11.086;2024-01-11T00:08:11;30.00;;;20.40;;
1414;SDS011;702;49.466;11.086;2024-01-11T00:10:38;33.90;;;18.70;;
1414;SDS011;702;49.466;11.086;2024-01-11T00:13:05;37.27;;;20.67;;
1414;SDS011;702;49.466;11.086;2024-01-11T00:15:34;38.50;;;21.00;;
1414;SDS011;702;49.466;11.086;2024-01-11T00:18:01;36.40;;;20.10;;
1414;SDS011;702;49.466;11.086;2024-01-11T00:20:30;33.10;;;18.87;;
1414;SDS011;702;49.466;11.086;2024-01-11T00:22:57;33.73;;;21.47;;
1414;SDS011;702;49.466;11.086;2024-01-11T00:25:25;32.93;;;20.37;;
1414;SDS011;702;49.466;11.086;2024-01-11T00:27:52;33.03;;;20.73;;
1414;SDS011;702;49.466;11.086;2024-01-11T00:30:19;37.83;;;19.23;;
1414;SDS011;702;49.466;11.086;2024-01-11T00:32:49;38.73;;;20.63;;
1414;SDS011;702;49.466;11.086;2024-01-11T00:35:16;33.87;;;19.87;;
1414;SDS011;702;49.466;11.086;2024-01-11T00:37:43;32.87;;;19.03;;
1414;SDS011;702;49.466;11.086;2024-01-11T00:40:10;33.30;;;19.00;;
1414;SDS011;702;49.466;11.086;2024-01-11T00:42:38;32.47;;;18.87;;
1414;SDS011;702;49.466;11.086;2024-01-11T00:45:06;40.60;;;21.40;;
1414;SDS011;702;49.466;11.086;2024-01-11T00:47:33;37.77;;;20.73;;
1414;SDS011;702;49.466;11.086;2024-01-11T00:50:02;32.83;;;19.60;;
1414;SDS011;702;49.466;11.086;2024-01-11T00:52:30;36.63;;;20.13;;
1414;SDS011;702;49.466;11.086;2024-01-11T00:54:57;41.50;;;22.00;;
1414;SDS011;702;49.466;11.086;2024-01-11T00:57:25;31.70;;;18.80;;
1414;SDS011;702;49.466;11.086;2024-01-11T00:59:52;36.67;;;20.37;;
1414;SDS011;702;49.466;11.086;2024-01-11T01:02:19;37.90;;;18.83;;
1414;SDS011;702;49.466;11.086;2024-01-11T01:04:47;30.00;;;18.90;;
1414;SDS011;702;49.466;11.086;2024-01-11T01:07:15;34.23;;;20.40;;
1414;SDS011;702;49.466;11.086;2024-01-11T01:09:42;30.10;;;17.60;;
1414;SDS011;702;49.466;11.086;2024-01-11T01:12:09;37.60;;;20.20;;
1414;SDS011;702;49.466;11.086;2024-01-11T01:14:37;32.00;;;19.43;;
1414;SDS011;702;49.466;11.086;2024-01-11T01:17:04;37.73;;;20.60;;
1414;SDS011;702;49.466;11.086;2024-01-11T01:19:31;31.10;;;17.73;;
1414;SDS011;702;49.466;11.086;2024-01-11T01:21:59;33.67;;;18.83;;
1414;SDS011;702;49.466;11.086;2024-01-11T01:24:27;33.60;;;18.87;;
1414;SDS011;702;49.466;11.086;2024-01-11T01:26:54;33.93;;;18.33;;
1414;SDS011;702;49.466;11.086;2024-01-11T01:29:22;32.50;;;19.57;;
1414;SDS011;702;49.466;11.086;2024-01-11T01:31:49;32.13;;;18.57;;
1414;SDS011;702;49.466;11.086;2024-01-11T01:34:17;27.13;;;18.57;;
1414;SDS011;702;49.466;11.086;2024-01-11T01:36:44;30.00;;;19.10;;
1414;SDS011;702;49.466;11.086;2024-01-11T01:39:11;27.83;;;18.60;;
1414;SDS011;702;49.466;11.086;2024-01-11T01:41:40;32.80;;;18.50;;
1414;SDS011;702;49.466;11.086;2024-01-11T01:44:08;33.70;;;18.63;;
1414;SDS011;702;49.466;11.086;2024-01-11T01:46:35;31.87;;;17.00;;
1414;SDS011;702;49.466;11.086;2024-01-11T01:49:02;37.93;;;20.20;;
1414;SDS011;702;49.466;11.086;2024-01-11T01:51:31;35.03;;;19.43;;
1414;SDS011;702;49.466;11.086;2024-01-11T01:54:00;32.50;;;19.10;;
1414;SDS011;702;49.466;11.086;2024-01-11T01:56:29;36.20;;;17.63;;
1414;SDS011;702;49.466;11.086;2024-01-11T01:58:58;31.33;;;18.20;;
1414;SDS011;702;49.466;11.086;2024-01-11T02:01:28;31.83;;;18.90;;
1414;SDS011;702;49.466;11.086;2024-01-11T02:03:55;37.47;;;19.37;;
1414;SDS011;702;49.466;11.086;2024-01-11T02:06:23;30.50;;;18.03;;
1414;SDS011;702;49.466;11.086;2024-01-11T02:08:52;28.87;;;18.90;;
1414;SDS011;702;49.466;11.086;2024-01-11T02:11:21;35.17;;;18.10;;
1414;SDS011;702;49.466;11.086;2024-01-11T02:13:49;33.00;;;19.00;;
1414;SDS011;702;49.466;11.086;2024-01-11T02:16:18;36.60;;;18.77;;
1414;SDS011;702;49.466;11.086;2024-01-11T02:18:45;29.17;;;18.00;;
1414;SDS011;702;49.466;11.086;2024-01-11T02:21:14;33.33;;;17.93;;
1414;SDS011;702;49.466;11.086;2024-01-11T02:23:44;31.90;;;19.60;;
1414;SDS011;702;49.466;11.086;2024-01-11T02:26:19;34.30;;;18.60;;
1414;SDS011;702;49.466;11.086;2024-01-11T02:28:48;35.43;;;19.23;;
1414;SDS011;702;49.466;11.086;2024-01-11T02:31:15;34.30;;;18.07;;
1414;SDS011;702;49.466;11.086;2024-01-11T02:33:42;30.93;;;19.13;;
1414;SDS011;702;49.466;11.086;2024-01-11T02:36:10;31.40;;;18.63;;
1414;SDS011;702;49.466;11.086;2024-01-11T02:38:37;30.30;;;17.90;;
1414;SDS011;702;49.466;11.086;2024-01-11T02:41:07;34.70;;;18.73;;
1414;SDS011;702;49.466;11.086;2024-01-11T02:43:34;38.03;;;17.97;;
1414;SDS011;702;49.466;11.086;2024-01-11T02:46:02;37.13;;;20.88;;
1414;SDS011;702;49.466;11.086;2024-01-11T02:48:29;37.43;;;18.90;;
1414;SDS011;702;49.466;11.086;2024-01-11T02:50:57;35.20;;;19.07;;
1414;SDS011;702;49.466;11.086;2024-01-11T02:53:25;34.37;;;20.53;;
1414;SDS011;702;49.466;11.086;2024-01-11T02:55:52;37.03;;;19.97;;
1414;SDS011;702;49.466;11.086;2024-01-11T02:58:21;36.33;;;20.20;;
1414;SDS011;702;49.466;11.086;2024-01-11T03:00:48;39.80;;;20.80;;
1414;SDS011;702;49.466;11.086;2024-01-11T03:03:15;43.73;;;23.97;;
1414;SDS011;702;49.466;11.086;2024-01-11T03:05:43;49.83;;;21.83;;
1414;SDS011;702;49.466;11.086;2024-01-11T03:08:10;47.87;;;25.43;;
1414;SDS011;702;49.466;11.086;2024-01-11T03:10:37;44.40;;;22.43;;
1414;SDS011;702;49.466;11.086;2024-01-11T03:13:05;37.80;;;21.47;;
1414;SDS011;702;49.466;11.086;2024-01-11T03:15:34;41.20;;;20.40;;
1414;SDS011;702;49.466;11.086;2024-01-11T03:18:02;31.20;;;18.40;;
1414;SDS011;702;49.466;11.086;2024-01-11T03:20:30;36.43;;;19.97;;
1414;SDS011;702;49.466;11.086;2024-01-11T03:22:57;34.83;;;19.37;;
1414;SDS011;702;49.466;11.086;2024-01-11T03:25:24;35.40;;;18.97;;
1414;SDS011;702;49.466;11.086;2024-01-11T03:27:51;32.03;;;18.20;;
1414;SDS011;702;49.466;11.086;2024-01-11T03:30:18;28.50;;;17.27;;
1414;SDS011;702;49.466;11.086;2024-01-11T03:32:47;30.70;;;17.47;;
1414;SDS011;702;49.466;11.086;2024-01-11T03:35:14;36.47;;;18.87;;
1414;SDS011;702;49.466;11.086;2024-01-11T03:37:42;32.10;;;17.50;;
1414;SDS011;702;49.466;11.086;2024-01-11T03:40:09;31.27;;;18.30;;
1414;SDS011;702;49.466;11.086;2024-01-11T03:42:37;34.73;;;17.73;;
1414;SDS011;702;49.466;11.086;2024-01-11T03:45:04;34.57;;;18.73;;
1414;SDS011;702;49.466;11.086;2024-01-11T03:47:33;34.43;;;18.77;;
1414;SDS011;702;49.466;11.086;2024-01-11T03:50:01;33.80;;;18.90;;
1414;SDS011;702;49.466;11.086;2024-01-11T03:52:29;34.00;;;17.30;;
1414;SDS011;702;49.466;11.086;2024-01-11T03:54:56;32.30;;;18.87;;
1414;SDS011;702;49.466;11.086;2024-01-11T03:57:23;35.47;;;18.77;;
1414;SDS011;702;49.466;11.086;2024-01-11T03:59:51;39.17;;;19.20;;
1414;SDS011;702;49.466;11.086;2024-01-11T04:02:18;30.60;;;18.25;;
1414;SDS011;702;49.466;11.086;2024-01-11T04:04:46;32.97;;;18.50;;
1414;SDS011;702;49.466;11.086;2024-01-11T04:07:14;40.37;;;18.87;;
1414;SDS011;702;49.466;11.086;2024-01-11T04:09:42;33.37;;;18.23;;
1414;SDS011;702;49.466;11.086;2024-01-11T04:12:09;33.30;;;18.10;;
1414;SDS011;702;49.466;11.086;2024-01-11T04:14:37;36.57;;;18.50;;
1414;SDS011;702;49.466;11.086;2024-01-11T04:17:05;37.63;;;18.60;;
1414;SDS011;702;49.466;11.086;2024-01-11T04:19:33;30.20;;;18.40;;
1414;SDS011;702;49.466;11.086;2024-01-11T04:22:00;37.97;;;19.07;;
1414;SDS011;702;49.466;11.086;2024-01-11T04:24:29;35.40;;;18.77;;
1414;SDS011;702;49.466;11.086;2024-01-11T04:26:56;31.47;;;17.50;;
1414;SDS011;702;49.466;11.086;2024-01-11T04:29:24;34.80;;;19.30;;
1414;SDS011;702;49.466;11.086;2024-01-11T04:31:51;29.27;;;17.63;;
1414;SDS011;702;49.466;11.086;2024-01-11T04:34:18;36.17;;;18.20;;
1414;SDS011;702;49.466;11.086;2024-01-11T04:36:46;34.72;;;17.85;;
1414;SDS011;702;49.466;11.086;2024-01-11T04:39:13;35.93;;;17.43;;
1414;SDS011;702;49.466;11.086;2024-01-11T04:41:41;36.83;;;19.63;;
1414;SDS011;702;49.466;11.086;2024-01-11T04:44:09;30.27;;;16.47;;
1414;SDS011;702;49.466;11.086;2024-01-11T04:46:37;30.00;;;17.50;;
1414;SDS011;702;49.466;11.086;2024-01-11T04:49:04;30.30;;;17.02;;
1414;SDS011;702;49.466;11.086;2024-01-11T04:51:31;31.37;;;19.60;;
1414;SDS011;702;49.466;11.086;2024-01-11T04:53:58;32.47;;;18.38;;
1414;SDS011;702;49.466;11.086;2024-01-11T04:56:26;34.03;;;17.57;;
1414;SDS011;702;49.466;11.086;2024-01-11T04:58:57;39.43;;;19.50;;
1414;SDS011;702;49.466;11.086;2024-01-11T05:01:25;41.80;;;18.23;;
1414;SDS011;702;49.466;11.086;2024-01-11T05:03:52;36.80;;;18.40;;
1414;SDS011;702;49.466;11.086;2024-01-11T05:06:20;35.33;;;18.70;;
1414;SDS011;702;49.466;11.086;2024-01-11T05:08:49;37.47;;;18.47;;
1414;SDS011;702;49.466;11.086;2024-01-11T05:11:17;30.23;;;18.23;;
1414;SDS011;702;49.466;11.086;2024-01-11T05:13:46;37.80;;;20.27;;
1414;SDS011;702;49.466;11.086;2024-01-11T05:16:24;35.83;;;20.10;;
1414;SDS011;702;49.466;11.086;2024-01-11T05:18:54;36.42;;;19.52;;
1414;SDS011;702;49.466;11.086;2024-01-11T05:21:23;33.15;;;18.98;;
1414;SDS011;702;49.466;11.086;2024-01-11T05:23:51;38.20;;;20.13;;
1414;SDS011;702;49.466;11.086;2024-01-11T05:26:18;36.93;;;19.23;;
1414;SDS011;702;49.466;11.086;2024-01-11T05:28:46;32.40;;;20.87;;
1414;SDS011;702;49.466;11.086;2024-01-11T05:31:14;32.13;;;19.48;;
1414;SDS011;702;49.466;11.086;2024-01-11T05:33:43;39.93;;;20.10;;
1414;SDS011;702;49.466;11.086;2024-01-11T05:36:10;35.50;;;19.57;;
1414;SDS011;702;49.466;11.086;2024-01-11T05:38:38;32.03;;;19.77;;
1414;SDS011;702;49.466;11.086;2024-01-11T05:41:06;38.30;;;21.33;;
1414;SDS011;702;49.466;11.086;2024-01-11T05:43:52;41.80;;;22.20;;
1414;SDS011;702;49.466;11.086;2024-01-11T05:46:19;32.27;;;19.50;;
1414;SDS011;702;49.466;11.086;2024-01-11T05:48:46;36.90;;;20.80;;
1414;SDS011;702;49.466;11.086;2024-01-11T05:51:14;51.07;;;25.87;;
1414;SDS011;702;49.466;11.086;2024-01-11T05:53:41;37.83;;;24.90;;
1414;SDS011;702;49.466;11.086;2024-01-11T05:56:09;40.07;;;23.20;;
1414;SDS011;702;49.466;11.086;2024-01-11T05:58:36;38.00;;;21.83;;
1414;SDS011;702;49.466;11.086;2024-01-11T06:01:05;35.70;;;20.30;;
1414;SDS011;702;49.466;11.086;2024-01-11T06:03:32;35.60;;;21.67;;
1414;SDS011;702;49.466;11.086;2024-01-11T06:06:00;35.60;;;21.03;;
1414;SDS011;702;49.466;11.086;2024-01-11T06:08:28;37.47;;;20.23;;
1414;SDS011;702;49.466;11.086;2024-01-11T06:10:56;33.93;;;19.73;;
1414;SDS011;702;49.466;11.086;2024-01-11T06:13:23;36.13;;;21.47;;
1414;SDS011;702;49.466;11.086;2024-01-11T06:15:51;33.03;;;18.87;;
1414;SDS011;702;49.466;11.086;2024-01-11T06:18:19;37.40;;;19.60;;
1414;SDS011;702;49.466;11.086;2024-01-11T06:20:46;46.03;;;21.40;;
1414;SDS011;702;49.466;11.086;2024-01-11T06:23:13;35.17;;;19.67;;
1414;SDS011;702;49.466;11.086;2024-01-11T06:25:42;42.20;;;23.50;;
1414;SDS011;702;49.466;11.086;2024-01-11T06:28:11;38.07;;;21.87;;
1414;SDS011;702;49.466;11.086;2024-01-11T06:30:41;38.47;;;22.30;;
1414;SDS011;702;49.466;11.086;2024-01-11T06:33:10;40.37;;;22.00;;
1414;SDS011;702;49.466;11.086;2024-01-11T06:35:38;45.43;;;22.37;;
1414;SDS011;702;49.466;11.086;2024-01-11T06:38:08;35.33;;;18.47;;
1414;SDS011;702;49.466;11.086;2024-01-11T06:40:35;41.77;;;22.60;;
1414;SDS011;702;49.466;11.086;2024-01-11T06:43:03;33.43;;;20.60;;
1414;SDS011;702;49.466;11.086;2024-01-11T06:45:30;34.60;;;19.90;;
1414;SDS011;702;49.466;11.086;2024-01-11T06:47:57;37.33;;;20.40;;
1414;SDS011;702;49.466;11.086;2024-01-11T06:50:25;36.60;;;21.90;;
1414;SDS011;702;49.466;11.086;2024-01-11T06:52:57;37.03;;;21.50;;
1414;SDS011;702;49.466;11.086;2024-01-11T06:55:27;33.70;;;19.33;;
1414;SDS011;702;49.466;11.086;2024-01-11T06:57:55;36.77;;;21.00;;
1414;SDS011;702;49.466;11.086;2024-01-11T07:00:24;44.10;;;20.50;;
1414;SDS011;702;49.466;11.086;2024-01-11T07:02:51;40.37;;;20.03;;
1414;SDS011;702;49.466;11.086;2024-01-11T07:05:21;30.20;;;18.37;;
1414;SDS011;702;49.466;11.086;2024-01-11T07:07:48;35.27;;;18.77;;
1414;SDS011;702;49.466;11.086;2024-01-11T07:10:20;30.03;;;19.20;;
1414;SDS011;702;49.466;11.086;2024-01-11T07:12:47;40.17;;;20.00;;
1414;SDS011;702;49.466;11.086;2024-01-11T07:15:15;30.87;;;18.50;;
1414;SDS011;702;49.466;11.086;2024-01-11T07:17:45;34.63;;;18.40;;
1414;SDS011;702;49.466;11.086;2024-01-11T07:20:12;30.43;;;18.43;;
1414;SDS011;702;49.466;11.086;2024-01-11T07:22:42;42.93;;;21.00;;
1414;SDS011;702;49.466;11.086;2024-01-11T07:25:09;32.77;;;18.87;;
1414;SDS011;702;49.466;11.086;2024-01-11T07:27:38;37.57;;;20.10;;
1414;SDS011;702;49.466;11.086;2024-01-11T07:30:06;42.25;;;19.00;;
1414;SDS011;702;49.466;11.086;2024-01-11T07:32:34;40.00;;;22.70;;
1414;SDS011;702;49.466;11.086;2024-01-11T07:35:01;45.63;;;25.27;;
1414;SDS011;702;49.466;11.086;2024-01-11T07:37:32;39.43;;;23.93;;
1414;SDS011;702;49.466;11.086;2024-01-11T07:39:59;38.10;;;22.43;;
1414;SDS011;702;49.466;11.086;2024-01-11T07:42:27;40.87;;;23.40;;
1414;SDS011;702;49.466;11.086;2024-01-11T07:44:55;36.93;;;21.33;;
1414;SDS011;702;49.466;11.086;2024-01-11T07:47:22;38.30;;;21.00;;
1414;SDS011;702;49.466;11.086;2024-01-11T07:49:50;37.73;;;21.53;;
1414;SDS011;702;49.466;11.086;2024-01-11T07:52:17;39.10;;;24.43;;
1414;SDS011;702;49.466;11.086;2024-01-11T07:54:45;76.43;;;36.40;;
1414;SDS011;702;49.466;11.086;2024-01-11T07:57:12;57.70;;;27.57;;
1414;SDS011;702;49.466;11.086;2024-01-11T07:59:39;37.53;;;20.20;;
1414;SDS011;702;49.466;11.086;2024-01-11T08:02:08;45.67;;;25.53;;
1414;SDS011;702;49.466;11.086;2024-01-11T08:04:36;53.00;;;25.57;;
1414;SDS011;702;49.466;11.086;2024-01-11T08:07:04;46.10;;;25.60;;
1414;SDS011;702;49.466;11.086;2024-01-11T08:09:31;41.47;;;22.27;;
1414;SDS011;702;49.466;11.086;2024-01-11T08:11:59;43.10;;;22.60;;
1414;SDS011;702;49.466;11.086;2024-01-11T08:14:26;43.73;;;23.73;;
1414;SDS011;702;49.466;11.086;2024-01-11T08:16:53;52.20;;;28.40;;
1414;SDS011;702;49.466;11.086;2024-01-11T08:19:22;50.40;;;25.90;;
1414;SDS011;702;49.466;11.086;2024-01-11T08:21:49;43.20;;;20.30;;
1414;SDS011;702;49.466;11.086;2024-01-11T08:24:16;35.50;;;20.33;;
1414;SDS011;702;49.466;11.086;2024-01-11T08:26:44;40.07;;;21.70;;
1414;SDS011;702;49.466;11.086;2024-01-11T08:29:11;42.50;;;23.20;;
1414;SDS011;702;49.466;11.086;2024-01-11T08:31:40;40.70;;;22.63;;
1414;SDS011;702;49.466;11.086;2024-01-11T08:34:08;37.67;;;21.80;;
1414;SDS011;702;49.466;11.086;2024-01-11T08:36:37;44.67;;;22.10;;
1414;SDS011;702;49.466;11.086;2024-01-11T08:39:05;39.97;;;20.93;;
1414;SDS011;702;49.466;11.086;2024-01-11T08:41:33;38.93;;;20.90;;
1414;SDS011;702;49.466;11.086;2024-01-11T08:44:00;38.57;;;23.10;;
1414;SDS011;702;49.466;11.086;2024-01-11T08:46:28;44.97;;;22.60;;
1414;SDS011;702;49.466;11.086;2024-01-11T08:48:56;34.37;;;20.83;;
1414;SDS011;702;49.466;11.086;2024-01-11T08:51:23;40.83;;;21.90;;
1414;SDS011;702;49.466;11.086;2024-01-11T08:53:52;37.97;;;20.83;;
1414;SDS011;702;49.466;11.086;2024-01-11T08:56:19;40.00;;;22.13;;
1414;SDS011;702;49.466;11.086;2024-01-11T08:58:47;33.27;;;19.30;;
1414;SDS011;702;49.466;11.086;2024-01-11T09:01:14;41.37;;;21.67;;
1414;SDS011;702;49.466;11.086;2024-01-11T09:03:43;41.37;;;22.87;;
1414;SDS011;702;49.466;11.086;2024-01-11T09:06:13;36.57;;;20.60;;
1414;SDS011;702;49.466;11.086;2024-01-11T09:08:40;38.40;;;22.13;;
1414;SDS011;702;49.466;11.086;2024-01-11T09:11:08;41.50;;;21.47;;
1414;SDS011;702;49.466;11.086;2024-01-11T09:13:36;43.70;;;24.00;;
1414;SDS011;702;49.466;11.086;2024-01-11T09:16:05;41.87;;;22.20;;
1414;SDS011;702;49.466;11.086;2024-01-11T09:18:34;40.33;;;21.20;;
1414;SDS011;702;49.466;11.086;2024-01-11T09:21:02;35.23;;;20.10;;
1414;SDS011;702;49.466;11.086;2024-01-11T09:23:30;37.80;;;21.97;;
1414;SDS011;702;49.466;11.086;2024-01-11T09:25:59;42.83;;;22.80;;
1414;SDS011;702;49.466;11.086;2024-01-11T09:28:28;39.60;;;24.37;;
1414;SDS011;702;49.466;11.086;2024-01-11T09:30:55;35.97;;;22.70;;
1414;SDS011;702;49.466;11.086;2024-01-11T09:33:25;44.77;;;24.57;;
1414;SDS011;702;49.466;11.086;2024-01-11T09:35:52;39.63;;;23.90;;
1414;SDS011;702;49.466;11.086;2024-01-11T09:38:21;37.67;;;25.73;;
1414;SDS011;702;49.466;11.086;2024-01-11T09:40:48;36.87;;;21.23;;
1414;SDS011;702;49.466;11.086;2024-01-11T09:43:30;38.00;;;20.70;;
1414;SDS011;702;49.466;11.086;2024-01-11T09:46:00;32.87;;;19.90;;
1414;SDS011;702;49.466;11.086;2024-01-11T09:48:32;38.03;;;21.50;;
1414;SDS011;702;49.466;11.086;2024-01-11T09:51:01;36.97;;;21.43;;
1414;SDS011;702;49.466;11.086;2024-01-11T09:53:29;34.63;;;21.50;;
1414;SDS011;702;49.466;11.086;2024-01-11T09:55:59;35.07;;;21.40;;
1414;SDS011;702;49.466;11.086;2024-01-11T09:58:27;38.50;;;22.20;;
1414;SDS011;702;49.466;11.086;2024-01-11T10:00:56;35.47;;;21.57;;
1414;SDS011;702;49.466;11.086;2024-01-11T10:03:25;33.20;;;20.10;;
1414;SDS011;702;49.466;11.086;2024-01-11T10:05:53;38.67;;;21.87;;
1414;SDS011;702;49.466;11.086;2024-01-11T10:08:24;35.43;;;20.70;;
1414;SDS011;702;49.466;11.086;2024-01-11T10:10:52;32.13;;;20.53;;
1414;SDS011;702;49.466;11.086;2024-01-11T10:13:21;39.50;;;24.20;;
1414;SDS011;702;49.466;11.086;2024-01-11T10:16:05;39.43;;;23.20;;
1414;SDS011;702;49.466;11.086;2024-01-11T10:18:34;33.33;;;21.90;;
1414;SDS011;702;49.466;11.086;2024-01-11T10:21:02;34.47;;;19.97;;
1414;SDS011;702;49.466;11.086;2024-01-11T10:23:33;35.93;;;21.07;;
1414;SDS011;702;49.466;11.086;2024-01-11T10:26:01;33.90;;;20.87;;
1414;SDS011;702;49.466;11.086;2024-01-11T10:28:28;30.13;;;19.43;;
1414;SDS011;702;49.466;11.086;2024-01-11T10:30:56;33.70;;;19.57;;
1414;SDS011;702;49.466;11.086;2024-01-11T10:33:26;37.93;;;23.37;;
1414;SDS011;702;49.466;11.086;2024-01-11T10:35:53;35.67;;;21.43;;
1414;SDS011;702;49.466;11.086;2024-01-11T10:38:21;34.80;;;21.60;;
1414;SDS011;702;49.466;11.086;2024-01-11T10:40:52;34.77;;;21.20;;
1414;SDS011;702;49.466;11.086;2024-01-11T10:43:22;36.03;;;21.47;;
1414;SDS011;702;49.466;11.086;2024-01-11T10:45:49;35.40;;;22.00;;
1414;SDS011;702;49.466;11.086;2024-01-11T10:48:20;34.70;;;21.70;;
1414;SDS011;702;49.466;11.086;2024-01-11T10:50:54;35.20;;;22.07;;
1414;SDS011;702;49.466;11.086;2024-01-11T10:53:28;33.70;;;20.17;;
1414;SDS011;702;49.466;11.086;2024-01-11T10:56:05;36.30;;;22.30;;
1414;SDS011;702;49.466;11.086;2024-01-11T10:58:33;36.30;;;22.57;;
1414;SDS011;702;49.466;11.086;2024-01-11T11:01:02;32.60;;;20.60;;
1414;SDS011;702;49.466;11.086;2024-01-11T11:03:30;30.07;;;18.80;;
1414;SDS011;702;49.466;11.086;2024-01-11T11:06:01;31.17;;;18.83;;
1414;SDS011;702;49.466;11.086;2024-01-11T11:08:32;28.47;;;19.20;;
1414;SDS011;702;49.466;11.086;2024-01-11T11:11:02;31.00;;;19.93;;
1414;SDS011;702;49.466;11.086;2024-01-11T11:13:31;30.03;;;19.30;;
1414;SDS011;702;49.466;11.086;2024-01-11T11:16:02;33.03;;;19.67;;
1414;SDS011;702;49.466;11.086;2024-01-11T11:18:29;26.47;;;17.60;;
1414;SDS011;702;49.466;11.086;2024-01-11T11:21:00;35.20;;;20.33;;
1414;SDS011;702;49.466;11.086;2024-01-11T11:23:35;30.20;;;18.73;;
1414;SDS011;702;49.466;11.086;2024-01-11T11:26:05;32.30;;;19.53;;
1414;SDS011;702;49.466;11.086;2024-01-11T11:28:34;29.47;;;19.20;;
1414;SDS011;702;49.466;11.086;2024-01-11T11:31:02;32.40;;;19.00;;
1414;SDS011;702;49.466;11.086;2024-01-11T11:33:30;41.93;;;19.20;;
1414;SDS011;702;49.466;11.086;2024-01-11T11:35:57;30.67;;;19.83;;
1414;SDS011;702;49.466;11.086;2024-01-11T11:38:26;29.50;;;19.90;;
1414;SDS011;702;49.466;11.086;2024-01-11T11:40:56;40.30;;;20.13;;
1414;SDS011;702;49.466;11.086;2024-01-11T11:43:25;31.00;;;18.13;;
1414;SDS011;702;49.466;11.086;2024-01-11T11:45:55;32.43;;;19.57;;
1414;SDS011;702;49.466;11.086;2024-01-11T11:51:21;27.83;;;18.10;;
1414;SDS011;702;49.466;11.086;2024-01-11T11:53:50;25.30;;;18.33;;
1414;SDS011;702;49.466;11.086;2024-01-11T11:56:19;33.20;;;19.97;;
1414;SDS011;702;49.466;11.086;2024-01-11T11:58:49;29.63;;;18.30;;
1414;SDS011;702;49.466;11.086;2024-01-11T12:01:17;32.47;;;19.10;;
1414;SDS011;702;49.466;11.086;2024-01-11T12:03:46;34.40;;;21.07;;
1414;SDS011;702;49.466;11.086;2024-01-11T12:06:15;28.90;;;19.90;;
1414;SDS011;702;49.466;11.086;2024-01-11T12:08:44;31.73;;;19.43;;
1414;SDS011;702;49.466;11.086;2024-01-11T12:11:14;29.20;;;18.97;;
1414;SDS011;702;49.466;11.086;2024-01-11T12:13:43;31.83;;;19.50;;
1414;SDS011;702;49.466;11.086;2024-01-11T12:16:11;27.57;;;18.80;;
1414;SDS011;702;49.466;11.086;2024-01-11T12:18:38;26.60;;;17.70;;
1414;SDS011;702;49.466;11.086;2024-01-11T12:21:06;30.73;;;19.10;;
1414;SDS011;702;49.466;11.086;2024-01-11T12:23:34;32.10;;;19.00;;
1414;SDS011;702;49.466;11.086;2024-01-11T12:26:03;26.53;;;18.00;;
1414;SDS011;702;49.466;11.086;2024-01-11T12:28:39;30.27;;;18.43;;
1414;SDS011;702;49.466;11.086;2024-01-11T12:31:07;28.97;;;19.20;;
1414;SDS011;702;49.466;11.086;2024-01-11T12:33:35;29.07;;;18.80;;
1414;SDS011;702;49.466;11.086;2024-01-11T12:36:05;29.83;;;18.07;;
1414;SDS011;702;49.466;11.086;2024-01-11T12:38:34;29.30;;;17.60;;
1414;SDS011;702;49.466;11.086;2024-01-11T12:41:01;28.67;;;19.00;;
1414;SDS011;702;49.466;11.086;2024-01-11T12:43:28;27.33;;;19.03;;
1414;SDS011;702;49.466;11.086;2024-01-11T12:45:57;29.03;;;19.07;;
1414;SDS011;702;49.466;11.086;2024-01-11T12:48:24;25.50;;;18.63;;
1414;SDS011;702;49.466;11.086;2024-01-11T12:50:52;27.67;;;17.60;;
1414;SDS011;702;49.466;11.086;2024-01-11T12:53:20;29.70;;;19.40;;
1414;SDS011;702;49.466;11.086;2024-01-11T12:55:48;28.53;;;18.50;;
1414;SDS011;702;49.466;11.086;2024-01-11T12:58:29;25.63;;;16.77;;
1414;SDS011;702;49.466;11.086;2024-01-11T13:00:57;27.27;;;17.73;;
1414;SDS011;702;49.466;11.086;2024-01-11T13:03:28;29.03;;;18.03;;
1414;SDS011;702;49.466;11.086;2024-01-11T13:05:57;26.90;;;19.10;;
1414;SDS011;702;49.466;11.086;2024-01-11T13:08:24;30.17;;;20.30;;
1414;SDS011;702;49.466;11.086;2024-01-11T13:10:52;32.20;;;20.37;;
1414;SDS011;702;49.466;11.086;2024-01-11T13:13:22;30.67;;;19.00;;
1414;SDS011;702;49.466;11.086;2024-01-11T13:15:53;27.17;;;17.30;;
1414;SDS011;702;49.466;11.086;2024-01-11T13:18:22;28.97;;;18.00;;
1414;SDS011;702;49.466;11.086;2024-01-11T13:20:50;33.80;;;17.63;;
1414;SDS011;702;49.466;11.086;2024-01-11T13:23:18;26.83;;;18.80;;
1414;SDS011;702;49.466;11.086;2024-01-11T13:25:47;25.97;;;17.93;;
1414;SDS011;702;49.466;11.086;2024-01-11T13:28:16;31.67;;;19.37;;
1414;SDS011;702;49.466;11.086;2024-01-11T13:30:44;26.03;;;17.03;;
1414;SDS011;702;49.466;11.086;2024-01-11T13:33:12;27.50;;;17.57;;
1414;SDS011;702;49.466;11.086;2024-01-11T13:35:42;29.83;;;18.47;;
1414;SDS011;702;49.466;11.086;2024-01-11T13:38:09;29.70;;;18.77;;
1414;SDS011;702;49.466;11.086;2024-01-11T13:40:37;29.50;;;17.60;;
1414;SDS011;702;49.466;11.086;2024-01-11T13:43:05;27.50;;;17.80;;
1414;SDS011;702;49.466;11.086;2024-01-11T13:45:33;24.23;;;16.73;;
1414;SDS011;702;49.466;11.086;2024-01-11T13:48:01;24.10;;;17.20;;
1414;SDS011;702;49.466;11.086;2024-01-11T13:50:29;30.00;;;17.30;;
1414;SDS011;702;49.466;11.086;2024-01-11T13:52:59;26.07;;;18.10;;
1414;SDS011;702;49.466;11.086;2024-01-11T13:55:27;29.33;;;18.50;;
1414;SDS011;702;49.466;11.086;2024-01-11T13:58:02;26.70;;;17.27;;
1414;SDS011;702;49.466;11.086;2024-01-11T14:00:30;28.60;;;17.93;;
1414;SDS011;702;49.466;11.086;2024-01-11T14:02:57;28.97;;;17.03;;
1414;SDS011;702;49.466;11.086;2024-01-11T14:05:24;25.30;;;16.70;;
1414;SDS011;702;49.466;11.086;2024-01-11T14:07:51;27.07;;;17.50;;
1414;SDS011;702;49.466;11.086;2024-01-11T14:10:25;25.10;;;16.20;;
1414;SDS011;702;49.466;11.086;2024-01-11T14:12:53;24.90;;;17.10;;
1414;SDS011;702;49.466;11.086;2024-01-11T14:15:20;26.23;;;16.87;;
1414;SDS011;702;49.466;11.086;2024-01-11T14:17:48;26.10;;;16.33;;
1414;SDS011;702;49.466;11.086;2024-01-11T14:20:15;23.17;;;16.90;;
1414;SDS011;702;49.466;11.086;2024-01-11T14:22:43;27.73;;;17.60;;
1414;SDS011;702;49.466;11.086;2024-01-11T14:25:14;26.67;;;15.90;;
1414;SDS011;702;49.466;11.086;2024-01-11T14:27:44;26.20;;;15.77;;
1414;SDS011;702;49.466;11.086;2024-01-11T14:30:11;27.03;;;17.23;;
1414;SDS011;702;49.466;11.086;2024-01-11T14:32:39;27.10;;;17.40;;
1414;SDS011;702;49.466;11.086;2024-01-11T14:35:07;25.37;;;16.87;;
1414;SDS011;702;49.466;11.086;2024-01-11T14:37:36;25.70;;;16.47;;
1414;SDS011;702;49.466;11.086;2024-01-11T14:40:05;34.37;;;17.23;;
1414;SDS011;702;49.466;11.086;2024-01-11T14:42:36;27.30;;;17.77;;
1414;SDS011;702;49.466;11.086;2024-01-11T14:45:05;28.17;;;16.70;;
1414;SDS011;702;49.466;11.086;2024-01-11T14:47:34;27.40;;;18.00;;
1414;SDS011;702;49.466;11.086;2024-01-11T14:50:02;24.47;;;16.73;;
1414;SDS011;702;49.466;11.086;2024-01-11T14:52:34;29.50;;;17.17;;
1414;SDS011;702;49.466;11.086;2024-01-11T14:55:04;29.53;;;17.20;;
1414;SDS011;702;49.466;11.086;2024-01-11T14:57:35;27.57;;;16.83;;